aviador You're here:

CYPY Decoded Metar

FORT CHIPEWYAN in AB, CANADA
Report Time2017-08-24 02:00:00
UTC Time2017-08-24 03:09:09
Flight Rules Old
Wind160° at 06 kt
W.Decomp.*RWY 21: 2.2 kt HW 5.6 kt LCW
W.Rank160° ranks 28
Current wind is above 160° avg. (5.6)
Visibility9999 m
Phenomena:N/A
Clouds:Broken 180 Hf
Expected CloudBase > 3,600 ft AGL from Temp-Dew spread
Ceiling18,000 ft
Temp23°C (ISA +10)
Dew Point14°C (57% RH)
AAT22.1°C
QNH1008 hPa
Density Alt2,251 ft
Elevation761 ft
Report Wrong Elevation
Raw Report
CYPY 240200Z AUTO 16006KT 130V190 9SM BKN180 23/14 A2978 RMK
SLP091 DENSITY ALT 2000FT=

Extra information for CYPY:More info

Metar Taf Metar & Taf Last 4 Metars F.Rules Stats Wind Profile Meteogram Temp Stats Airport Information Weather charts Add Link Nearby VenuesMetar ALERT Operation Metar Decoded Social comments